sensor_id;sensor_type;location;lat;lon;timestamp;pressure;altitude;pressure_sealevel;temperature;humidity
69245;BME280;56357;52.304;4.870;2023-02-27T00:01:37;103227.25;;;17.01;48.94
69245;BME280;56357;52.304;4.870;2023-02-27T00:04:04;103233.94;;;17.00;49.09
69245;BME280;56357;52.304;4.870;2023-02-27T00:06:30;103225.31;;;17.01;48.80
69245;BME280;56357;52.304;4.870;2023-02-27T00:08:57;103234.56;;;17.02;49.00
69245;BME280;56357;52.304;4.870;2023-02-27T00:11:23;103235.00;;;16.99;48.84
69245;BME280;56357;52.304;4.870;2023-02-27T00:13:49;103238.47;;;16.94;48.95
69245;BME280;56357;52.304;4.870;2023-02-27T00:16:16;103233.69;;;16.95;48.84
69245;BME280;56357;52.304;4.870;2023-02-27T00:18:42;103236.50;;;16.95;48.59
69245;BME280;56357;52.304;4.870;2023-02-27T00:21:09;103232.41;;;16.91;48.81
69245;BME280;56357;52.304;4.870;2023-02-27T00:23:35;103230.69;;;16.90;49.16
69245;BME280;56357;52.304;4.870;2023-02-27T00:26:02;103226.81;;;16.91;48.91
69245;BME280;56357;52.304;4.870;2023-02-27T00:28:29;103224.66;;;16.86;48.65
69245;BME280;56357;52.304;4.870;2023-02-27T00:30:56;103222.28;;;16.90;48.55
69245;BME280;56357;52.304;4.870;2023-02-27T00:33:22;103228.97;;;16.89;48.60
69245;BME280;56357;52.304;4.870;2023-02-27T00:36:00;103224.44;;;16.88;48.90
69245;BME280;56357;52.304;4.870;2023-02-27T00:38:27;103233.25;;;16.85;48.63
69245;BME280;56357;52.304;4.870;2023-02-27T00:40:53;103228.75;;;16.84;48.95
69245;BME280;56357;52.304;4.870;2023-02-27T00:43:20;103224.25;;;16.83;48.63
69245;BME280;56357;52.304;4.870;2023-02-27T00:45:47;103229.84;;;16.83;48.54
69245;BME280;56357;52.304;4.870;2023-02-27T00:48:14;103232.41;;;16.78;48.66
69245;BME280;56357;52.304;4.870;2023-02-27T00:50:41;103229.81;;;16.76;48.67
69245;BME280;56357;52.304;4.870;2023-02-27T00:53:07;103230.47;;;16.78;48.30
69245;BME280;56357;52.304;4.870;2023-02-27T00:55:34;103234.56;;;16.76;48.90
69245;BME280;56357;52.304;4.870;2023-02-27T00:58:00;103238.88;;;16.78;48.36
69245;BME280;56357;52.304;4.870;2023-02-27T01:00:27;103238.66;;;16.80;48.60
69245;BME280;56357;52.304;4.870;2023-02-27T01:02:53;103241.91;;;16.77;48.37
69245;BME280;56357;52.304;4.870;2023-02-27T01:05:20;103241.91;;;16.77;48.52
69245;BME280;56357;52.304;4.870;2023-02-27T01:07:46;103240.16;;;16.76;48.42
69245;BME280;56357;52.304;4.870;2023-02-27T01:10:13;103237.56;;;16.74;48.63
69245;BME280;56357;52.304;4.870;2023-02-27T01:12:40;103234.56;;;16.76;48.23
69245;BME280;56357;52.304;4.870;2023-02-27T01:15:07;103226.38;;;16.74;48.91
69245;BME280;56357;52.304;4.870;2023-02-27T01:17:34;103228.53;;;16.72;48.33
69245;BME280;56357;52.304;4.870;2023-02-27T01:20:01;103226.59;;;16.73;48.44
69245;BME280;56357;52.304;4.870;2023-02-27T01:22:27;103233.25;;;16.72;48.08
69245;BME280;56357;52.304;4.870;2023-02-27T01:24:54;103219.06;;;16.67;48.14
69245;BME280;56357;52.304;4.870;2023-02-27T01:27:20;103219.47;;;16.64;48.13
69245;BME280;56357;52.304;4.870;2023-02-27T01:29:46;103217.75;;;16.63;48.41
69245;BME280;56357;52.304;4.870;2023-02-27T01:32:13;103213.88;;;16.57;48.61
69245;BME280;56357;52.304;4.870;2023-02-27T01:34:39;103216.06;;;16.62;48.49
69245;BME280;56357;52.304;4.870;2023-02-27T01:37:06;103218.22;;;16.60;48.29
69245;BME280;56357;52.304;4.870;2023-02-27T01:39:32;103222.72;;;16.61;48.44
69245;BME280;56357;52.304;4.870;2023-02-27T01:41:59;103207.44;;;16.57;48.48
69245;BME280;56357;52.304;4.870;2023-02-27T01:44:27;103202.69;;;16.57;48.55
69245;BME280;56357;52.304;4.870;2023-02-27T01:46:54;103206.13;;;16.53;48.62
69245;BME280;56357;52.304;4.870;2023-02-27T01:49:24;103204.84;;;16.55;48.34
69245;BME280;56357;52.304;4.870;2023-02-27T01:52:03;103210.00;;;16.58;48.40
69245;BME280;56357;52.304;4.870;2023-02-27T01:54:33;103212.81;;;16.52;48.16
69245;BME280;56357;52.304;4.870;2023-02-27T01:57:02;103199.03;;;16.50;48.50
69245;BME280;56357;52.304;4.870;2023-02-27T01:59:32;103207.00;;;16.53;48.12
69245;BME280;56357;52.304;4.870;2023-02-27T02:02:01;103208.28;;;16.51;48.63
69245;BME280;56357;52.304;4.870;2023-02-27T02:04:34;103203.78;;;16.50;48.23
69245;BME280;56357;52.304;4.870;2023-02-27T02:07:04;103204.16;;;16.46;48.43
69245;BME280;56357;52.304;4.870;2023-02-27T02:09:36;103207.44;;;16.50;48.08
69245;BME280;56357;52.304;4.870;2023-02-27T02:12:05;103208.44;;;16.42;48.33
69245;BME280;56357;52.304;4.870;2023-02-27T02:14:32;103212.09;;;16.43;48.32
69245;BME280;56357;52.304;4.870;2023-02-27T02:19:53;103211.69;;;16.39;48.09
69245;BME280;56357;52.304;4.870;2023-02-27T02:25:18;103211.25;;;16.36;48.47
69245;BME280;56357;52.304;4.870;2023-02-27T02:36:36;103205.41;;;16.24;48.45
69245;BME280;56357;52.304;4.870;2023-02-27T02:39:11;103204.56;;;16.30;47.95
69245;BME280;56357;52.304;4.870;2023-02-27T02:49:52;103209.03;;;16.18;48.12
69245;BME280;56357;52.304;4.870;2023-02-27T02:52:28;103215.06;;;16.15;48.17
69245;BME280;56357;52.304;4.870;2023-02-27T02:55:12;103221.94;;;16.13;48.27
69245;BME280;56357;52.304;4.870;2023-02-27T02:57:55;103219.75;;;16.08;48.40
69245;BME280;56357;52.304;4.870;2023-02-27T03:00:29;103218.47;;;16.04;48.47
69245;BME280;56357;52.304;4.870;2023-02-27T03:03:19;103226.19;;;16.02;48.69
69245;BME280;56357;52.304;4.870;2023-02-27T03:05:55;103219.09;;;16.06;48.67
69245;BME280;56357;52.304;4.870;2023-02-27T03:08:28;103226.22;;;16.09;48.40
69245;BME280;56357;52.304;4.870;2023-02-27T03:10:58;103227.72;;;16.05;48.71
69245;BME280;56357;52.304;4.870;2023-02-27T03:13:51;103231.81;;;16.09;48.69
69245;BME280;56357;52.304;4.870;2023-02-27T03:16:36;103228.59;;;16.05;48.71
69245;BME280;56357;52.304;4.870;2023-02-27T03:19:11;103233.13;;;16.13;48.75
69245;BME280;56357;52.304;4.870;2023-02-27T03:21:58;103235.25;;;16.11;48.51
69245;BME280;56357;52.304;4.870;2023-02-27T03:24:34;103224.94;;;16.11;48.72
69245;BME280;56357;52.304;4.870;2023-02-27T03:27:05;103222.16;;;16.18;48.79
69245;BME280;56357;52.304;4.870;2023-02-27T03:29:44;103225.38;;;16.15;48.70
69245;BME280;56357;52.304;4.870;2023-02-27T03:32:17;103213.13;;;16.16;48.54
69245;BME280;56357;52.304;4.870;2023-02-27T03:34:46;103220.41;;;16.10;48.92
69245;BME280;56357;52.304;4.870;2023-02-27T03:37:21;103206.88;;;16.14;48.79
69245;BME280;56357;52.304;4.870;2023-02-27T03:46:00;103211.84;;;16.18;48.88
69245;BME280;56357;52.304;4.870;2023-02-27T03:48:29;103217.63;;;16.10;48.53
69245;BME280;56357;52.304;4.870;2023-02-27T03:50:56;103221.91;;;16.06;49.02
69245;BME280;56357;52.304;4.870;2023-02-27T03:53:29;103215.50;;;16.19;49.15
69245;BME280;56357;52.304;4.870;2023-02-27T03:55:59;103209.91;;;16.19;48.88
69245;BME280;56357;52.304;4.870;2023-02-27T03:58:29;103219.38;;;16.24;49.04
69245;BME280;56357;52.304;4.870;2023-02-27T04:00:55;103215.94;;;16.22;49.09
69245;BME280;56357;52.304;4.870;2023-02-27T04:03:22;103216.59;;;16.24;48.77
69245;BME280;56357;52.304;4.870;2023-02-27T04:05:48;103216.56;;;16.18;48.85
69245;BME280;56357;52.304;4.870;2023-02-27T04:08:41;103222.19;;;16.24;49.26
69245;BME280;56357;52.304;4.870;2023-02-27T04:14:13;103215.72;;;16.17;49.14
69245;BME280;56357;52.304;4.870;2023-02-27T04:16:54;103235.22;;;16.04;49.38
69245;BME280;56357;52.304;4.870;2023-02-27T04:24:54;103243.06;;;16.28;49.01
69245;BME280;56357;52.304;4.870;2023-02-27T04:27:38;103241.72;;;16.18;49.32
69245;BME280;56357;52.304;4.870;2023-02-27T04:33:14;103261.03;;;16.06;49.20
69245;BME280;56357;52.304;4.870;2023-02-27T04:35:52;103255.31;;;16.27;49.17
69245;BME280;56357;52.304;4.870;2023-02-27T04:38:38;103255.88;;;16.10;49.60
69245;BME280;56357;52.304;4.870;2023-02-27T04:41:13;103249.84;;;16.06;49.22
69245;BME280;56357;52.304;4.870;2023-02-27T04:43:43;103251.63;;;16.20;49.15
69245;BME280;56357;52.304;4.870;2023-02-27T04:46:13;103249.94;;;16.26;49.20
69245;BME280;56357;52.304;4.870;2023-02-27T04:48:53;103255.97;;;16.29;49.10
69245;BME280;56357;52.304;4.870;2023-02-27T04:51:24;103256.38;;;16.33;48.90
69245;BME280;56357;52.304;4.870;2023-02-27T04:53:59;103256.13;;;16.21;49.19
69245;BME280;56357;52.304;4.870;2023-02-27T04:56:34;103253.03;;;15.97;49.42
69245;BME280;56357;52.304;4.870;2023-02-27T04:59:05;103258.69;;;16.10;49.75
69245;BME280;56357;52.304;4.870;2023-02-27T05:01:37;103262.41;;;16.30;49.34
69245;BME280;56357;52.304;4.870;2023-02-27T05:04:07;103256.78;;;16.23;49.37
69245;BME280;56357;52.304;4.870;2023-02-27T05:06:37;103255.47;;;16.13;49.38
69245;BME280;56357;52.304;4.870;2023-02-27T05:09:12;103261.53;;;16.29;49.13
69245;BME280;56357;52.304;4.870;2023-02-27T05:11:46;103261.72;;;16.21;49.19
69245;BME280;56357;52.304;4.870;2023-02-27T05:14:18;103257.44;;;16.19;49.34
69245;BME280;56357;52.304;4.870;2023-02-27T05:16:51;103260.22;;;16.12;49.43
69245;BME280;56357;52.304;4.870;2023-02-27T05:19:19;103268.00;;;16.30;49.10
69245;BME280;56357;52.304;4.870;2023-02-27T05:22:12;103266.31;;;16.29;49.36
69245;BME280;56357;52.304;4.870;2023-02-27T05:30:01;103269.72;;;16.24;49.20
69245;BME280;56357;52.304;4.870;2023-02-27T05:32:42;103270.13;;;16.21;49.53
69245;BME280;56357;52.304;4.870;2023-02-27T05:35:23;103275.31;;;16.24;49.31
69245;BME280;56357;52.304;4.870;2023-02-27T05:38:08;103275.53;;;16.29;49.35
69245;BME280;56357;52.304;4.870;2023-02-27T05:40:45;103276.81;;;16.20;49.41
69245;BME280;56357;52.304;4.870;2023-02-27T05:43:41;103281.31;;;16.21;49.25
69245;BME280;56357;52.304;4.870;2023-02-27T05:46:13;103279.13;;;16.10;49.52
69245;BME280;56357;52.304;4.870;2023-02-27T05:48:51;103286.97;;;16.34;49.25
69245;BME280;56357;52.304;4.870;2023-02-27T05:51:20;103277.50;;;16.35;49.24
69245;BME280;56357;52.304;4.870;2023-02-27T05:53:54;103284.75;;;16.17;49.55
69245;BME280;56357;52.304;4.870;2023-02-27T05:56:25;103292.69;;;16.13;49.77
69245;BME280;56357;52.304;4.870;2023-02-27T05:59:00;103277.44;;;16.22;49.38
69245;BME280;56357;52.304;4.870;2023-02-27T06:01:28;103284.75;;;16.23;49.41
69245;BME280;56357;52.304;4.870;2023-02-27T06:03:54;103294.13;;;16.03;49.20
69245;BME280;56357;52.304;4.870;2023-02-27T06:06:22;103294.84;;;16.11;49.73
69245;BME280;56357;52.304;4.870;2023-02-27T06:08:48;103291.25;;;16.30;49.72
69245;BME280;56357;52.304;4.870;2023-02-27T06:11:14;103295.94;;;16.23;49.22
69245;BME280;56357;52.304;4.870;2023-02-27T06:13:42;103294.06;;;16.37;48.92
69245;BME280;56357;52.304;4.870;2023-02-27T06:16:15;103300.03;;;16.27;49.42
69245;BME280;56357;52.304;4.870;2023-02-27T06:18:42;103300.69;;;16.23;49.72
69245;BME280;56357;52.304;4.870;2023-02-27T06:21:08;103297.84;;;16.16;49.49
69245;BME280;56357;52.304;4.870;2023-02-27T06:23:35;103295.09;;;16.23;49.63
69245;BME280;56357;52.304;4.870;2023-02-27T06:26:01;103297.50;;;16.32;49.46
69245;BME280;56357;52.304;4.870;2023-02-27T06:28:28;103305.44;;;16.35;49.44
69245;BME280;56357;52.304;4.870;2023-02-27T06:30:55;103311.31;;;16.47;49.25
69245;BME280;56357;52.304;4.870;2023-02-27T06:33:23;103306.75;;;16.39;49.25
69245;BME280;56357;52.304;4.870;2023-02-27T06:35:50;103312.13;;;16.41;49.25
69245;BME280;56357;52.304;4.870;2023-02-27T06:38:16;103315.59;;;16.36;49.00
69245;BME280;56357;52.304;4.870;2023-02-27T06:40:43;103322.00;;;16.30;49.29
69245;BME280;56357;52.304;4.870;2023-02-27T06:43:09;103315.09;;;16.26;48.76
69245;BME280;56357;52.304;4.870;2023-02-27T06:45:36;103309.53;;;16.26;48.71
69245;BME280;56357;52.304;4.870;2023-02-27T06:48:02;103320.66;;;16.13;47.55
69245;BME280;56357;52.304;4.870;2023-02-27T06:50:28;103322.25;;;15.88;47.61
69245;BME280;56357;52.304;4.870;2023-02-27T06:52:55;103320.75;;;15.92;48.48
69245;BME280;56357;52.304;4.870;2023-02-27T06:55:21;103323.34;;;16.00;48.75
69245;BME280;56357;52.304;4.870;2023-02-27T06:57:49;103325.34;;;15.72;49.33
69245;BME280;56357;52.304;4.870;2023-02-27T07:00:16;103320.53;;;15.94;49.22
69245;BME280;56357;52.304;4.870;2023-02-27T07:02:43;103329.53;;;16.30;48.25
69245;BME280;56357;52.304;4.870;2023-02-27T07:05:09;103334.16;;;16.10;49.24
69245;BME280;56357;52.304;4.870;2023-02-27T07:07:37;103337.88;;;16.23;49.21
69245;BME280;56357;52.304;4.870;2023-02-27T07:10:09;103331.19;;;16.11;49.94
69245;BME280;56357;52.304;4.870;2023-02-27T07:12:37;103331.66;;;16.28;49.42
69245;BME280;56357;52.304;4.870;2023-02-27T07:15:04;103336.22;;;16.35;50.60
69245;BME280;56357;52.304;4.870;2023-02-27T07:17:31;103336.69;;;16.45;51.68
69245;BME280;56357;52.304;4.870;2023-02-27T07:19:57;103341.41;;;16.38;51.00
69245;BME280;56357;52.304;4.870;2023-02-27T07:22:24;103343.84;;;16.48;50.83
69245;BME280;56357;52.304;4.870;2023-02-27T07:24:50;103348.41;;;16.21;52.01
69245;BME280;56357;52.304;4.870;2023-02-27T07:27:16;103339.06;;;16.42;51.25
69245;BME280;56357;52.304;4.870;2023-02-27T07:29:43;103339.09;;;16.48;51.38
69245;BME280;56357;52.304;4.870;2023-02-27T07:32:10;103336.38;;;16.27;51.53
69245;BME280;56357;52.304;4.870;2023-02-27T07:34:36;103347.66;;;16.40;51.42
69245;BME280;56357;52.304;4.870;2023-02-27T07:37:03;103345.78;;;16.54;51.76
69245;BME280;56357;52.304;4.870;2023-02-27T07:39:29;103342.06;;;16.40;51.41
69245;BME280;56357;52.304;4.870;2023-02-27T07:41:55;103344.44;;;16.43;52.57
69245;BME280;56357;52.304;4.870;2023-02-27T07:44:22;103346.78;;;16.46;52.66
69245;BME280;56357;52.304;4.870;2023-02-27T07:46:48;103351.06;;;16.36;51.90
69245;BME280;56357;52.304;4.870;2023-02-27T07:49:15;103348.38;;;16.56;51.65
69245;BME280;56357;52.304;4.870;2023-02-27T07:51:41;103343.13;;;16.39;52.25
69245;BME280;56357;52.304;4.870;2023-02-27T07:54:07;103346.44;;;16.56;51.58
69245;BME280;56357;52.304;4.870;2023-02-27T07:56:34;103348.66;;;16.33;51.60
69245;BME280;56357;52.304;4.870;2023-02-27T07:59:00;103346.44;;;16.56;51.98
69245;BME280;56357;52.304;4.870;2023-02-27T08:01:27;103357.00;;;16.61;51.37
69245;BME280;56357;52.304;4.870;2023-02-27T08:03:54;103358.59;;;16.83;51.18
69245;BME280;56357;52.304;4.870;2023-02-27T08:06:22;103360.47;;;16.76;50.88
69245;BME280;56357;52.304;4.870;2023-02-27T08:08:49;103351.22;;;16.75;51.30
69245;BME280;56357;52.304;4.870;2023-02-27T08:11:16;103362.25;;;16.90;50.76
69245;BME280;56357;52.304;4.870;2023-02-27T08:13:42;103358.56;;;16.89;50.86
69245;BME280;56357;52.304;4.870;2023-02-27T08:16:09;103365.25;;;16.95;50.49
69245;BME280;56357;52.304;4.870;2023-02-27T08:18:36;103365.44;;;16.87;50.46
69245;BME280;56357;52.304;4.870;2023-02-27T08:21:02;103361.19;;;16.97;50.12
69245;BME280;56357;52.304;4.870;2023-02-27T08:23:29;103364.59;;;16.93;50.26
69245;BME280;56357;52.304;4.870;2023-02-27T08:25:56;103365.88;;;16.84;50.69
69245;BME280;56357;52.304;4.870;2023-02-27T08:28:23;103372.78;;;16.88;50.56
69245;BME280;56357;52.304;4.870;2023-02-27T08:30:50;103377.31;;;16.82;50.21
69245;BME280;56357;52.304;4.870;2023-02-27T08:33:17;103371.06;;;16.87;50.64
69245;BME280;56357;52.304;4.870;2023-02-27T08:35:43;103373.19;;;16.85;50.85
69245;BME280;56357;52.304;4.870;2023-02-27T08:38:09;103366.31;;;16.81;50.94
69245;BME280;56357;52.304;4.870;2023-02-27T08:40:36;103377.53;;;16.94;50.52
69245;BME280;56357;52.304;4.870;2023-02-27T08:43:02;103383.56;;;16.84;50.90
69245;BME280;56357;52.304;4.870;2023-02-27T08:45:29;103385.28;;;16.92;51.02
69245;BME280;56357;52.304;4.870;2023-02-27T08:47:55;103369.72;;;16.63;51.93
69245;BME280;56357;52.304;4.870;2023-02-27T08:50:22;103384.22;;;16.86;51.44
69245;BME280;56357;52.304;4.870;2023-02-27T08:52:48;103383.16;;;16.94;50.41
69245;BME280;56357;52.304;4.870;2023-02-27T08:55:15;103381.41;;;17.06;50.58
69245;BME280;56357;52.304;4.870;2023-02-27T08:57:41;103378.34;;;16.81;50.97
69245;BME280;56357;52.304;4.870;2023-02-27T09:00:08;103391.72;;;16.86;50.99
69245;BME280;56357;52.304;4.870;2023-02-27T09:02:38;103398.44;;;17.04;50.94
69245;BME280;56357;52.304;4.870;2023-02-27T09:05:05;103404.94;;;17.31;50.16
69245;BME280;56357;52.304;4.870;2023-02-27T09:07:31;103399.13;;;17.39;50.52
69245;BME280;56357;52.304;4.870;2023-02-27T09:10:02;103402.84;;;17.53;49.80
69245;BME280;56357;52.304;4.870;2023-02-27T09:12:28;103400.47;;;17.56;50.35
69245;BME280;56357;52.304;4.870;2023-02-27T09:14:55;103404.34;;;17.68;50.18
69245;BME280;56357;52.304;4.870;2023-02-27T09:17:21;103403.91;;;17.71;49.68
69245;BME280;56357;52.304;4.870;2023-02-27T09:19:48;103403.91;;;17.58;50.30
69245;BME280;56357;52.304;4.870;2023-02-27T09:22:17;103389.03;;;17.84;49.50
69245;BME280;56357;52.304;4.870;2023-02-27T09:24:44;103399.78;;;17.87;48.90
69245;BME280;56357;52.304;4.870;2023-02-27T09:27:10;103398.47;;;18.02;48.96
69245;BME280;56357;52.304;4.870;2023-02-27T09:29:37;103399.78;;;17.93;49.35
69245;BME280;56357;52.304;4.870;2023-02-27T09:32:03;103401.28;;;18.02;49.23
69245;BME280;56357;52.304;4.870;2023-02-27T09:34:30;103401.03;;;18.10;49.25
69245;BME280;56357;52.304;4.870;2023-02-27T09:37:00;103416.16;;;18.03;49.51
69245;BME280;56357;52.304;4.870;2023-02-27T09:39:27;103405.13;;;18.21;48.90
69245;BME280;56357;52.304;4.870;2023-02-27T09:42:32;103403.56;;;18.32;48.24
69245;BME280;56357;52.304;4.870;2023-02-27T09:44:55;103409.38;;;18.37;48.75
69245;BME280;56357;52.304;4.870;2023-02-27T09:47:39;103419.06;;;18.41;48.89
69245;BME280;56357;52.304;4.870;2023-02-27T09:50:23;103409.38;;;18.37;49.23
69245;BME280;56357;52.304;4.870;2023-02-27T09:52:53;103421.41;;;18.63;49.04
69245;BME280;56357;52.304;4.870;2023-02-27T09:55:21;103415.41;;;18.47;49.47
69245;BME280;56357;52.304;4.870;2023-02-27T09:57:53;103421.03;;;18.47;50.05
69245;BME280;56357;52.304;4.870;2023-02-27T10:00:40;103422.06;;;18.59;49.31
69245;BME280;56357;52.304;4.870;2023-02-27T10:06:12;103414.53;;;18.59;49.29
69245;BME280;56357;52.304;4.870;2023-02-27T10:08:55;103423.19;;;18.45;50.07
69245;BME280;56357;52.304;4.870;2023-02-27T10:11:33;103422.47;;;18.69;49.74
69245;BME280;56357;52.304;4.870;2023-02-27T10:14:33;103424.41;;;18.68;49.59
69245;BME280;56357;52.304;4.870;2023-02-27T10:17:05;103423.69;;;18.86;48.87
69245;BME280;56357;52.304;4.870;2023-02-27T10:19:35;103420.00;;;18.85;48.66
69245;BME280;56357;52.304;4.870;2023-02-27T10:22:05;103416.16;;;18.80;49.14
69245;BME280;56357;52.304;4.870;2023-02-27T10:24:49;103418.78;;;18.68;49.54
69245;BME280;56357;52.304;4.870;2023-02-27T10:27:19;103426.75;;;18.78;49.20
69245;BME280;56357;52.304;4.870;2023-02-27T10:29:46;103423.69;;;18.86;49.17
69245;BME280;56357;52.304;4.870;2023-02-27T10:32:20;103430.97;;;18.93;50.05
69245;BME280;56357;52.304;4.870;2023-02-27T10:34:53;103430.75;;;18.95;50.04
69245;BME280;56357;52.304;4.870;2023-02-27T10:37:24;103423.56;;;19.05;50.10
69245;BME280;56357;52.304;4.870;2023-02-27T10:39:55;103428.31;;;19.05;49.86
69245;BME280;56357;52.304;4.870;2023-02-27T10:42:25;103428.72;;;19.08;50.09
69245;BME280;56357;52.304;4.870;2023-02-27T10:44:53;103430.03;;;19.06;50.39
69245;BME280;56357;52.304;4.870;2023-02-27T10:47:22;103423.59;;;18.99;50.57
69245;BME280;56357;52.304;4.870;2023-02-27T10:49:50;103417.09;;;19.05;50.27
69245;BME280;56357;52.304;4.870;2023-02-27T10:52:17;103420.56;;;19.00;50.28
69245;BME280;56357;52.304;4.870;2023-02-27T10:54:44;103426.75;;;18.78;50.69
69245;BME280;56357;52.304;4.870;2023-02-27T10:57:26;103418.97;;;18.80;50.93
69245;BME280;56357;52.304;4.870;2023-02-27T11:00:06;103420.66;;;18.81;50.26
69245;BME280;56357;52.304;4.870;2023-02-27T11:02:42;103417.06;;;18.67;50.15
69245;BME280;56357;52.304;4.870;2023-02-27T11:05:36;103421.19;;;18.65;50.41
69245;BME280;56357;52.304;4.870;2023-02-27T11:08:18;103426.75;;;18.71;49.95
69245;BME280;56357;52.304;4.870;2023-02-27T11:13:34;103413.19;;;18.68;49.52
69245;BME280;56357;52.304;4.870;2023-02-27T11:18:34;103412.56;;;18.60;49.39
69245;BME280;56357;52.304;4.870;2023-02-27T11:21:28;103405.88;;;18.54;49.62
69245;BME280;56357;52.304;4.870;2023-02-27T11:24:09;103399.59;;;18.65;49.20
69245;BME280;56357;52.304;4.870;2023-02-27T11:26:54;103400.50;;;18.53;49.48
69245;BME280;56357;52.304;4.870;2023-02-27T11:29:21;103400.31;;;18.48;49.92
69245;BME280;56357;52.304;4.870;2023-02-27T11:31:53;103395.13;;;18.45;49.95
69245;BME280;56357;52.304;4.870;2023-02-27T11:34:27;103385.41;;;18.54;49.42
69245;BME280;56357;52.304;4.870;2023-02-27T11:36:58;103377.34;;;18.64;49.31
69245;BME280;56357;52.304;4.870;2023-02-27T11:39:32;103367.47;;;18.55;49.00
69245;BME280;56357;52.304;4.870;2023-02-27T11:42:08;103371.81;;;18.51;49.53
69245;BME280;56357;52.304;4.870;2023-02-27T11:44:44;103378.19;;;18.71;49.38
69245;BME280;56357;52.304;4.870;2023-02-27T11:47:18;103373.91;;;18.62;49.79
69245;BME280;56357;52.304;4.870;2023-02-27T11:52:36;103359.38;;;18.71;49.20
69245;BME280;56357;52.304;4.870;2023-02-27T11:55:05;103374.94;;;18.74;48.80
69245;BME280;56357;52.304;4.870;2023-02-27T11:57:40;103357.78;;;18.51;49.20
69245;BME280;56357;52.304;4.870;2023-02-27T12:03:05;103357.69;;;18.64;49.06
69245;BME280;56357;52.304;4.870;2023-02-27T12:05:48;103362.69;;;18.62;49.34
69245;BME280;56357;52.304;4.870;2023-02-27T12:08:40;103354.78;;;18.39;49.58
69245;BME280;56357;52.304;4.870;2023-02-27T12:13:58;103358.34;;;18.66;48.70
69245;BME280;56357;52.304;4.870;2023-02-27T12:19:30;103352.97;;;18.58;49.04
69245;BME280;56357;52.304;4.870;2023-02-27T12:22:16;103361.84;;;18.61;48.77
69245;BME280;56357;52.304;4.870;2023-02-27T12:24:51;103353.44;;;18.55;48.86
69245;BME280;56357;52.304;4.870;2023-02-27T12:27:24;103350.63;;;18.55;48.77
69245;BME280;56357;52.304;4.870;2023-02-27T12:29:58;103353.91;;;18.39;49.13
69245;BME280;56357;52.304;4.870;2023-02-27T12:32:47;103348.28;;;18.39;49.45
69245;BME280;56357;52.304;4.870;2023-02-27T12:35:21;103343.97;;;18.49;48.86
69245;BME280;56357;52.304;4.870;2023-02-27T12:37:49;103347.00;;;18.48;48.45
69245;BME280;56357;52.304;4.870;2023-02-27T12:40:17;103345.03;;;18.48;48.38
69245;BME280;56357;52.304;4.870;2023-02-27T12:50:33;103343.78;;;18.38;48.85
69245;BME280;56357;52.304;4.870;2023-02-27T12:56:14;103346.34;;;18.39;49.20
69245;BME280;56357;52.304;4.870;2023-02-27T13:01:56;103349.38;;;18.38;49.44
69245;BME280;56357;52.304;4.870;2023-02-27T13:04:47;103350.47;;;18.43;49.23
69245;BME280;56357;52.304;4.870;2023-02-27T13:07:26;103354.78;;;18.46;48.43
69245;BME280;56357;52.304;4.870;2023-02-27T13:09:57;103345.50;;;18.45;48.37
69245;BME280;56357;52.304;4.870;2023-02-27T13:12:38;103350.91;;;18.40;48.81
69245;BME280;56357;52.304;4.870;2023-02-27T13:15:22;103351.34;;;18.44;48.30
69245;BME280;56357;52.304;4.870;2023-02-27T13:18:06;103353.25;;;18.50;48.18
69245;BME280;56357;52.304;4.870;2023-02-27T13:20:48;103344.66;;;18.38;48.62
69245;BME280;56357;52.304;4.870;2023-02-27T13:23:17;103346.41;;;18.33;49.12
69245;BME280;56357;52.304;4.870;2023-02-27T13:25:50;103346.13;;;18.41;48.21
69245;BME280;56357;52.304;4.870;2023-02-27T13:28:21;103344.03;;;18.29;48.63
69245;BME280;56357;52.304;4.870;2023-02-27T13:31:05;103337.53;;;18.29;49.14
69245;BME280;56357;52.304;4.870;2023-02-27T13:36:15;103328.72;;;18.25;49.58
69245;BME280;56357;52.304;4.870;2023-02-27T13:38:45;103332.63;;;18.18;49.69
69245;BME280;56357;52.304;4.870;2023-02-27T13:43:56;103327.41;;;18.28;48.66
69245;BME280;56357;52.304;4.870;2023-02-27T13:59:35;103329.59;;;18.26;49.13
69245;BME280;56357;52.304;4.870;2023-02-27T14:04:38;103323.50;;;18.42;48.22
69245;BME280;56357;52.304;4.870;2023-02-27T14:07:15;103321.75;;;18.48;48.03
69245;BME280;56357;52.304;4.870;2023-02-27T14:09:44;103316.44;;;18.26;49.07
69245;BME280;56357;52.304;4.870;2023-02-27T14:12:32;103314.06;;;18.23;49.34
69245;BME280;56357;52.304;4.870;2023-02-27T14:15:02;103312.28;;;18.42;49.48
69245;BME280;56357;52.304;4.870;2023-02-27T14:20:04;103303.19;;;18.47;48.79
69245;BME280;56357;52.304;4.870;2023-02-27T14:22:37;103311.19;;;18.43;48.70
69245;BME280;56357;52.304;4.870;2023-02-27T14:25:21;103320.75;;;18.22;49.80
69245;BME280;56357;52.304;4.870;2023-02-27T14:27:57;103325.97;;;18.19;49.13
69245;BME280;56357;52.304;4.870;2023-02-27T14:30:36;103314.47;;;18.27;48.22
69245;BME280;56357;52.304;4.870;2023-02-27T14:33:12;103327.19;;;18.29;48.17
69245;BME280;56357;52.304;4.870;2023-02-27T14:35:43;103319.88;;;18.28;48.30
69245;BME280;56357;52.304;4.870;2023-02-27T14:38:12;103329.31;;;18.47;47.81
69245;BME280;56357;52.304;4.870;2023-02-27T14:40:52;103326.94;;;18.38;47.75
69245;BME280;56357;52.304;4.870;2023-02-27T14:43:31;103323.56;;;18.16;47.48
69245;BME280;56357;52.304;4.870;2023-02-27T14:46:21;103312.81;;;18.13;45.91
69245;BME280;56357;52.304;4.870;2023-02-27T14:49:22;103320.38;;;18.06;44.04
69245;BME280;56357;52.304;4.870;2023-02-27T14:51:50;103324.03;;;18.06;42.64
69245;BME280;56357;52.304;4.870;2023-02-27T14:54:20;103317.16;;;18.02;42.39
69245;BME280;56357;52.304;4.870;2023-02-27T14:57:03;103325.13;;;18.05;42.24